This is the latest recevied weather packets stored in our database for station/object PP5FMM-10. If no packets are shown the sender has not sent any weather packets the latest 10 day(s).
| Time | Temp. | Humidity | Pressure | Rain* | Wind** | Luminosity | Snow |
|---|---|---|---|---|---|---|---|
| 1788016341 | 22.22° C | 88% | 1010.7 hPa | - | - | - | - |
| 1788015441 | 21.11° C | 92% | 1009.9 hPa | - | - | - | - |
| 1788012855 | 22.78° C | 85% | 1008.5 hPa | - | - | - | - |
| 1788010031 | 21.67° C | 89% | 1009.4 hPa | - | - | - | - |
| 1788009130 | 22.22° C | 88% | 1009.4 hPa | - | - | - | - |
| 1788009093 | 22.22° C | 88% | 1009.3 hPa | - | - | - | - |
| 1788008193 | 23.33° C | 84% | 1009.9 hPa | - | - | - | - |
| 1788007292 | 18.33° C | 100% | 1010.2 hPa | - | - | - | - |
| 1788000645 | 21.67° C | 87% | 1010 hPa | - | - | - | - |
| 1787999745 | 21.67° C | 88% | 1009.2 hPa | - | - | - | - |
| 1787998845 | 21.67° C | 87% | 1009 hPa | - | - | - | - |
| 1787997945 | 21.67° C | 87% | 1008.4 hPa | - | - | - | - |
| 1787997045 | 21.67° C | 87% | 1008.2 hPa | - | - | - | - |
| 1787996144 | 21.67° C | 88% | 1007.8 hPa | - | - | - | - |
| 1787995244 | 21.67° C | 87% | 1007.8 hPa | - | - | - | - |
| 1787994344 | 21.67° C | 88% | 1007.9 hPa | - | - | - | - |
| 1787993444 | 21.67° C | 87% | 1007.5 hPa | - | - | - | - |
| 1787992544 | 21.67° C | 87% | 1007.4 hPa | - | - | - | - |
| 1787991644 | 21.67° C | 88% | 1007.8 hPa | - | - | - | - |
| 1787990743 | 21.67° C | 87% | 1008 hPa | - | - | - | - |
| 1787989843 | 22.22° C | 87% | 1007.8 hPa | - | - | - | - |
| 1787988943 | 22.22° C | 87% | 1007.5 hPa | - | - | - | - |
| 1787988043 | 22.22° C | 87% | 1007.2 hPa | - | - | - | - |
| 1787987143 | 22.22° C | 87% | 1007.4 hPa | - | - | - | - |
| 1787986243 | 22.22° C | 87% | 1007.4 hPa | - | - | - | - |
* Rain since midnight (hover to see other rain measurements)
** Current wind speed in m/s (hover to see current wind gust speed)